createdAt,value
2017-12-30T00:00:55.700Z,86.28
2017-12-30T00:01:58.172Z,86.00
2017-12-30T00:03:00.665Z,85.79
2017-12-30T00:04:03.118Z,85.81
2017-12-30T00:05:05.596Z,85.84
2017-12-30T00:06:08.052Z,85.90
2017-12-30T00:07:10.502Z,86.05
2017-12-30T00:08:12.950Z,85.79
2017-12-30T00:09:15.420Z,85.74
2017-12-30T00:10:17.886Z,85.70
2017-12-30T00:11:20.352Z,86.00
2017-12-30T00:12:22.816Z,85.90
2017-12-30T00:13:25.276Z,85.82
2017-12-30T00:14:27.730Z,84.99
2017-12-30T00:15:30.194Z,84.85
2017-12-30T00:16:32.642Z,84.79
2017-12-30T00:17:35.101Z,85.19
2017-12-30T00:18:37.572Z,85.26
2017-12-30T00:19:40.017Z,85.61
2017-12-30T00:20:42.495Z,85.17
2017-12-30T00:21:44.942Z,85.46
2017-12-30T00:22:47.401Z,84.76
2017-12-30T00:23:49.864Z,84.96
2017-12-30T00:24:52.314Z,85.16
2017-12-30T00:25:54.801Z,85.14
2017-12-30T00:26:57.266Z,85.12
2017-12-30T00:27:59.718Z,85.64
2017-12-30T00:29:02.180Z,85.29
2017-12-30T00:30:04.633Z,85.68
2017-12-30T00:31:07.186Z,86.12
2017-12-30T00:32:09.665Z,85.82
2017-12-30T00:33:12.124Z,85.46
2017-12-30T00:34:14.600Z,85.24
2017-12-30T00:35:17.046Z,85.00
2017-12-30T00:36:19.527Z,85.16
2017-12-30T00:37:21.998Z,85.58
2017-12-30T00:38:24.441Z,85.62
2017-12-30T00:39:26.903Z,85.34
2017-12-30T00:40:29.364Z,85.20
2017-12-30T00:41:31.849Z,85.39
2017-12-30T00:42:34.293Z,85.52
2017-12-30T00:43:36.760Z,85.55
2017-12-30T00:44:39.220Z,85.43
2017-12-30T00:45:41.700Z,85.09
2017-12-30T00:46:44.212Z,84.97
2017-12-30T00:47:46.677Z,84.75
2017-12-30T00:48:49.129Z,84.44
2017-12-30T00:49:51.578Z,84.57
2017-12-30T00:50:54.025Z,84.95
2017-12-30T00:51:56.507Z,85.27
2017-12-30T00:52:58.953Z,85.30
2017-12-30T00:54:01.414Z,84.43
2017-12-30T00:55:03.865Z,83.72
2017-12-30T00:56:06.328Z,83.92
2017-12-30T00:57:08.810Z,82.62
2017-12-30T00:58:11.254Z,82.86
2017-12-30T00:59:13.716Z,83.03
2017-12-30T01:00:16.181Z,83.38
2017-12-30T01:02:20.427Z,83.76
2017-12-30T01:03:22.892Z,84.08
2017-12-30T01:04:25.351Z,84.19
2017-12-30T01:05:27.798Z,84.48
2017-12-30T01:06:30.264Z,84.75
2017-12-30T01:07:32.753Z,84.54
2017-12-30T01:08:35.197Z,84.71
2017-12-30T01:09:37.650Z,84.53
2017-12-30T01:10:40.120Z,84.47
2017-12-30T01:11:42.587Z,84.25
2017-12-30T01:12:45.076Z,84.29
2017-12-30T01:13:47.541Z,84.22
2017-12-30T01:14:49.989Z,82.86
2017-12-30T01:15:52.451Z,83.13
2017-12-30T01:16:54.916Z,83.91
2017-12-30T01:17:57.400Z,84.36
2017-12-30T01:18:59.860Z,84.49
2017-12-30T01:20:02.313Z,84.69
2017-12-30T01:21:04.776Z,85.04
2017-12-30T01:22:07.221Z,85.60
2017-12-30T01:23:09.703Z,85.90
2017-12-30T01:24:12.168Z,86.05
2017-12-30T01:25:14.621Z,86.63
2017-12-30T01:26:17.068Z,86.93
2017-12-30T01:27:19.531Z,86.89
2017-12-30T01:28:21.997Z,87.23
2017-12-30T01:29:24.449Z,87.95
2017-12-30T01:30:26.939Z,88.18
2017-12-30T01:31:29.396Z,88.03
2017-12-30T01:32:31.841Z,87.99
2017-12-30T01:33:34.320Z,88.66
2017-12-30T01:34:36.777Z,89.10
2017-12-30T01:35:39.226Z,89.05
2017-12-30T01:36:41.683Z,89.35
2017-12-30T01:37:44.148Z,89.95
2017-12-30T01:38:46.633Z,89.82
2017-12-30T01:39:49.116Z,89.77
2017-12-30T01:40:51.578Z,89.85
2017-12-30T01:41:54.025Z,89.84
2017-12-30T01:42:56.492Z,89.39
2017-12-30T01:43:58.946Z,89.37
2017-12-30T01:45:01.399Z,89.44
2017-12-30T01:46:03.854Z,88.75
2017-12-30T01:47:06.316Z,88.62
2017-12-30T01:48:08.788Z,88.53
2017-12-30T01:49:11.237Z,88.57
2017-12-30T01:50:13.681Z,88.29
2017-12-30T01:51:16.152Z,88.22
2017-12-30T01:52:18.601Z,88.24
2017-12-30T01:53:21.076Z,88.15
2017-12-30T01:54:23.526Z,88.26
2017-12-30T01:55:25.991Z,88.14
2017-12-30T01:56:28.480Z,87.97
2017-12-30T01:57:30.943Z,87.44
2017-12-30T01:58:33.434Z,87.45
2017-12-30T01:59:35.886Z,87.37
2017-12-30T02:00:38.361Z,87.06
2017-12-30T02:01:40.827Z,86.88
2017-12-30T02:02:43.274Z,86.94
2017-12-30T02:03:45.732Z,87.14
2017-12-30T02:04:48.201Z,87.02
2017-12-30T02:05:50.646Z,87.26
2017-12-30T02:06:53.093Z,87.58
2017-12-30T02:07:55.561Z,86.95
2017-12-30T02:08:58.006Z,86.93
2017-12-30T02:10:00.487Z,87.01
2017-12-30T02:11:02.947Z,87.36
2017-12-30T02:12:05.398Z,87.90
2017-12-30T02:13:07.867Z,87.83
2017-12-30T02:14:10.325Z,87.71
2017-12-30T02:15:12.788Z,87.80
2017-12-30T02:16:15.240Z,88.20
2017-12-30T02:17:17.703Z,88.50
2017-12-30T02:18:20.162Z,88.77
2017-12-30T02:19:22.626Z,88.85
2017-12-30T02:20:25.080Z,88.81
2017-12-30T02:21:27.550Z,89.33
2017-12-30T02:22:29.994Z,89.15
2017-12-30T02:23:32.455Z,89.40
2017-12-30T02:24:34.897Z,89.80
2017-12-30T02:25:37.353Z,89.54
2017-12-30T02:26:39.820Z,89.61
2017-12-30T02:27:42.270Z,89.89
2017-12-30T02:28:44.745Z,89.99
2017-12-30T02:29:47.203Z,89.87
2017-12-30T02:30:49.665Z,90.01
2017-12-30T02:31:52.192Z,90.27
2017-12-30T02:32:54.641Z,90.51
2017-12-30T02:33:57.089Z,90.51
2017-12-30T02:34:59.545Z,90.60
2017-12-30T02:36:02.013Z,90.70
2017-12-30T02:37:04.463Z,90.68
2017-12-30T02:38:06.919Z,90.75
2017-12-30T02:39:09.384Z,90.81
2017-12-30T02:40:11.848Z,90.97
2017-12-30T02:41:14.312Z,91.04
2017-12-30T02:42:16.777Z,90.92
2017-12-30T02:43:19.236Z,90.89
2017-12-30T02:44:21.684Z,90.86
2017-12-30T02:45:24.255Z,90.92
2017-12-30T02:46:26.699Z,90.66
2017-12-30T02:47:29.155Z,90.64
2017-12-30T02:48:31.619Z,90.70
2017-12-30T02:49:34.100Z,90.71
2017-12-30T02:50:36.641Z,90.72
2017-12-30T02:51:39.132Z,90.79
2017-12-30T02:52:41.584Z,91.11
2017-12-30T02:53:44.026Z,90.79
2017-12-30T02:54:46.571Z,90.74
2017-12-30T02:55:49.041Z,90.74
2017-12-30T02:56:51.493Z,90.80
2017-12-30T02:57:53.942Z,90.70
2017-12-30T02:58:56.390Z,90.63
2017-12-30T02:59:58.837Z,90.73
2017-12-30T03:01:01.299Z,90.44
2017-12-30T03:02:03.759Z,90.72
2017-12-30T03:03:06.205Z,90.77
2017-12-30T03:04:08.661Z,90.64
2017-12-30T03:05:11.124Z,90.55
2017-12-30T03:06:13.621Z,90.60
2017-12-30T03:07:16.088Z,90.63
2017-12-30T03:08:18.563Z,90.66
2017-12-30T03:09:21.010Z,90.59
2017-12-30T03:10:23.462Z,90.53
2017-12-30T03:11:25.914Z,90.48
2017-12-30T03:12:28.454Z,90.61
2017-12-30T03:13:30.920Z,90.65
2017-12-30T03:14:33.383Z,90.33
2017-12-30T03:15:35.844Z,90.40
2017-12-30T03:16:38.306Z,90.38
2017-12-30T03:17:40.773Z,90.10
2017-12-30T03:18:43.235Z,90.06
2017-12-30T03:19:45.681Z,90.02
2017-12-30T03:20:48.152Z,90.17
2017-12-30T03:21:50.601Z,90.06
2017-12-30T03:22:53.061Z,90.06
2017-12-30T03:23:55.525Z,90.03
2017-12-30T03:24:57.992Z,89.91
2017-12-30T03:26:00.437Z,90.06
2017-12-30T03:27:02.902Z,90.16
2017-12-30T03:28:05.364Z,90.36
2017-12-30T03:29:07.831Z,90.18
2017-12-30T03:30:10.300Z,90.10
2017-12-30T03:31:12.796Z,90.34
2017-12-30T03:32:15.246Z,90.46
2017-12-30T03:33:17.704Z,90.48
2017-12-30T03:34:20.157Z,90.37
2017-12-30T03:35:22.605Z,90.54
2017-12-30T03:36:25.068Z,90.45
2017-12-30T03:37:27.536Z,90.37
2017-12-30T03:38:29.989Z,90.37
2017-12-30T03:39:32.448Z,90.28
2017-12-30T03:40:34.917Z,90.13
2017-12-30T03:41:37.374Z,89.84
2017-12-30T03:42:39.817Z,90.10
2017-12-30T03:43:42.269Z,90.22
2017-12-30T03:44:44.743Z,90.38
2017-12-30T03:45:47.193Z,90.52
2017-12-30T03:46:49.673Z,90.62
2017-12-30T03:47:52.138Z,90.71
2017-12-30T03:48:54.598Z,90.95
2017-12-30T03:49:57.057Z,91.12
2017-12-30T03:50:59.520Z,91.07
2017-12-30T03:52:01.979Z,90.96
2017-12-30T03:53:04.429Z,91.03
2017-12-30T03:54:06.900Z,90.84
2017-12-30T03:55:09.364Z,90.84
2017-12-30T03:56:11.842Z,90.79
2017-12-30T03:57:14.285Z,90.75
2017-12-30T03:58:16.725Z,90.45
2017-12-30T03:59:19.170Z,90.28
2017-12-30T04:00:21.617Z,89.98
2017-12-30T04:01:24.073Z,89.78
2017-12-30T04:02:26.514Z,89.91
2017-12-30T04:03:29.024Z,89.85
2017-12-30T04:04:31.467Z,90.36
2017-12-30T04:05:33.909Z,90.01
2017-12-30T04:06:36.371Z,89.72
2017-12-30T04:07:38.831Z,89.72
2017-12-30T04:08:41.296Z,89.73
2017-12-30T04:09:43.762Z,89.69
2017-12-30T04:10:46.223Z,89.75
2017-12-30T04:11:48.683Z,89.68
2017-12-30T04:12:51.148Z,89.50
2017-12-30T04:13:53.594Z,89.12
2017-12-30T04:14:56.064Z,88.95
2017-12-30T04:15:58.509Z,89.21
2017-12-30T04:17:00.962Z,89.16
2017-12-30T04:18:03.424Z,89.26
2017-12-30T04:19:05.874Z,89.09
2017-12-30T04:20:08.348Z,89.28
2017-12-30T04:21:10.789Z,89.19
2017-12-30T04:22:13.238Z,89.22
2017-12-30T04:23:15.776Z,89.27
2017-12-30T04:24:18.229Z,89.34
2017-12-30T04:25:20.673Z,89.26
2017-12-30T04:26:23.135Z,89.25
2017-12-30T04:27:25.612Z,88.86
2017-12-30T04:28:28.063Z,88.74
2017-12-30T04:29:30.523Z,88.76
2017-12-30T04:30:32.982Z,89.10
2017-12-30T04:31:35.433Z,89.35
2017-12-30T04:32:37.891Z,88.87
2017-12-30T04:33:40.334Z,88.91
2017-12-30T04:34:42.802Z,88.83
2017-12-30T04:35:45.263Z,88.78
2017-12-30T04:36:47.724Z,88.74
2017-12-30T04:37:50.189Z,88.57
2017-12-30T04:38:52.656Z,88.67
2017-12-30T04:39:55.115Z,88.57
2017-12-30T04:40:57.576Z,88.73
2017-12-30T04:42:00.025Z,88.86
2017-12-30T04:43:02.481Z,88.80
2017-12-30T04:44:04.948Z,88.64
2017-12-30T04:45:07.399Z,88.65
2017-12-30T04:46:09.875Z,88.71
2017-12-30T04:47:12.336Z,88.58
2017-12-30T04:48:14.786Z,88.40
2017-12-30T04:49:17.234Z,88.32
2017-12-30T04:50:19.687Z,88.32
2017-12-30T04:51:22.130Z,88.17
2017-12-30T04:52:24.578Z,88.25
2017-12-30T04:53:27.094Z,88.52
2017-12-30T04:54:29.571Z,88.42
2017-12-30T04:55:32.521Z,88.29
2017-12-30T04:56:34.992Z,88.35
2017-12-30T04:57:37.447Z,88.27
2017-12-30T04:58:39.904Z,88.27
2017-12-30T04:59:42.368Z,88.15
2017-12-30T05:00:44.835Z,88.31
2017-12-30T05:01:47.278Z,88.42
2017-12-30T05:02:49.748Z,88.66
2017-12-30T05:03:52.193Z,88.62
2017-12-30T05:04:54.641Z,88.83
2017-12-30T05:05:57.103Z,88.64
2017-12-30T05:06:59.564Z,88.65
2017-12-30T05:08:02.018Z,88.67
2017-12-30T05:09:04.478Z,88.64
2017-12-30T05:10:06.925Z,88.55
2017-12-30T05:11:09.385Z,88.33
2017-12-30T05:12:11.848Z,88.22
2017-12-30T05:13:14.309Z,88.37
2017-12-30T05:14:16.767Z,88.44
2017-12-30T05:15:19.227Z,88.28
2017-12-30T05:16:21.684Z,88.01
2017-12-30T05:17:24.148Z,88.12
2017-12-30T05:18:26.612Z,88.04
2017-12-30T05:19:29.084Z,88.13
2017-12-30T05:20:31.553Z,88.32
2017-12-30T05:21:34.160Z,88.25
2017-12-30T05:22:36.605Z,88.14
2017-12-30T05:23:39.072Z,88.43
2017-12-30T05:24:41.532Z,88.46
2017-12-30T05:25:43.982Z,88.47
2017-12-30T05:26:46.430Z,88.64
2017-12-30T05:27:48.887Z,88.99
2017-12-30T05:28:51.348Z,89.06
2017-12-30T05:29:53.802Z,89.11
2017-12-30T05:30:56.264Z,89.29
2017-12-30T05:31:58.728Z,89.34
2017-12-30T05:33:01.177Z,89.47
2017-12-30T05:34:03.631Z,89.74
2017-12-30T05:35:06.090Z,89.80
2017-12-30T05:36:08.552Z,89.56
2017-12-30T05:37:11.002Z,89.33
2017-12-30T05:38:13.472Z,89.73
2017-12-30T05:39:15.933Z,89.74
2017-12-30T05:40:18.383Z,89.98
2017-12-30T05:41:20.835Z,90.00
2017-12-30T05:42:23.294Z,89.95
2017-12-30T05:43:25.756Z,90.06
2017-12-30T05:44:28.220Z,90.05
2017-12-30T05:45:30.679Z,90.05
2017-12-30T05:46:33.140Z,90.21
2017-12-30T05:47:35.613Z,90.25
2017-12-30T05:48:38.062Z,90.61
2017-12-30T05:49:40.509Z,90.58
2017-12-30T05:50:42.958Z,90.82
2017-12-30T05:51:45.416Z,90.77
2017-12-30T05:52:47.879Z,91.00
2017-12-30T05:53:50.348Z,91.18
2017-12-30T05:54:52.797Z,90.94
2017-12-30T05:55:55.548Z,91.26
2017-12-30T05:56:58.015Z,91.46
2017-12-30T05:58:00.951Z,91.54
2017-12-30T05:59:03.398Z,91.45
2017-12-30T06:00:05.888Z,91.46
2017-12-30T06:01:08.352Z,91.48
2017-12-30T06:02:10.832Z,91.46
2017-12-30T06:03:13.296Z,91.45
2017-12-30T06:04:15.738Z,91.47
2017-12-30T06:05:18.184Z,91.56
2017-12-30T06:06:20.649Z,91.67
2017-12-30T06:07:23.112Z,91.69
2017-12-30T06:08:25.575Z,91.82
2017-12-30T06:09:28.048Z,92.01
2017-12-30T06:10:30.505Z,92.15
2017-12-30T06:11:32.968Z,92.20
2017-12-30T06:12:35.432Z,92.18
2017-12-30T06:13:37.900Z,92.25
2017-12-30T06:14:40.360Z,92.26
2017-12-30T06:15:42.805Z,92.38
2017-12-30T06:16:45.259Z,92.54
2017-12-30T06:17:47.724Z,92.58
2017-12-30T06:18:50.191Z,92.55
2017-12-30T06:19:52.646Z,92.62
2017-12-30T06:20:55.100Z,92.69
2017-12-30T06:21:57.564Z,92.79
2017-12-30T06:23:00.028Z,92.96
2017-12-30T06:24:02.492Z,93.09
2017-12-30T06:25:04.955Z,92.97
2017-12-30T06:26:07.397Z,92.95
2017-12-30T06:27:09.849Z,92.91
2017-12-30T06:28:12.293Z,93.04
2017-12-30T06:29:14.756Z,93.01
2017-12-30T06:30:17.213Z,92.76
2017-12-30T06:31:19.672Z,92.73
2017-12-30T06:32:22.132Z,92.90
2017-12-30T06:33:24.596Z,93.01
2017-12-30T06:34:27.056Z,93.29
2017-12-30T06:35:29.501Z,93.39
2017-12-30T06:36:31.966Z,93.39
2017-12-30T06:37:34.406Z,93.13
2017-12-30T06:38:36.849Z,93.07
2017-12-30T06:39:39.481Z,93.13
2017-12-30T06:40:41.948Z,92.99
2017-12-30T06:41:44.412Z,93.16
2017-12-30T06:42:46.927Z,93.33
2017-12-30T06:43:49.388Z,93.46
2017-12-30T06:44:51.833Z,93.34
2017-12-30T06:45:54.329Z,93.28
2017-12-30T06:46:56.792Z,93.24
2017-12-30T06:47:59.253Z,93.24
2017-12-30T06:49:01.710Z,93.45
2017-12-30T06:50:04.154Z,93.32
2017-12-30T06:51:06.593Z,93.33
2017-12-30T06:52:09.052Z,93.33
2017-12-30T06:53:11.502Z,93.42
2017-12-30T06:54:13.963Z,93.42
2017-12-30T06:55:16.408Z,93.63
2017-12-30T06:56:18.868Z,93.45
2017-12-30T06:57:21.329Z,93.37
2017-12-30T06:58:24.354Z,93.55
2017-12-30T06:59:26.797Z,93.62
2017-12-30T07:00:29.238Z,93.78
2017-12-30T07:01:31.710Z,93.85
2017-12-30T07:02:34.168Z,93.78
2017-12-30T07:03:36.627Z,93.83
2017-12-30T07:04:39.069Z,93.71
2017-12-30T07:05:41.513Z,93.81
2017-12-30T07:06:43.964Z,93.80
2017-12-30T07:07:46.410Z,93.65
2017-12-30T07:08:48.853Z,93.66
2017-12-30T07:09:51.312Z,93.62
2017-12-30T07:10:53.788Z,93.54
2017-12-30T07:11:56.259Z,93.69
2017-12-30T07:12:58.762Z,93.73
2017-12-30T07:14:01.187Z,93.63
2017-12-30T07:15:03.630Z,93.56
2017-12-30T07:16:06.108Z,93.51
2017-12-30T07:17:08.572Z,93.52
2017-12-30T07:18:11.043Z,93.71
2017-12-30T07:19:13.490Z,93.61
2017-12-30T07:20:15.937Z,93.71
2017-12-30T07:21:18.404Z,93.64
2017-12-30T07:22:20.862Z,93.72
2017-12-30T07:23:23.331Z,93.89
2017-12-30T07:24:25.787Z,94.07
2017-12-30T07:25:28.243Z,94.08
2017-12-30T07:26:30.708Z,94.04
2017-12-30T07:27:33.249Z,94.16
2017-12-30T07:28:35.743Z,94.20
2017-12-30T07:29:38.200Z,94.20
2017-12-30T07:30:40.726Z,94.28
2017-12-30T07:31:43.197Z,94.41
2017-12-30T07:32:45.646Z,94.48
2017-12-30T07:33:48.144Z,94.40
2017-12-30T07:34:50.554Z,94.45
2017-12-30T07:35:53.008Z,94.62
2017-12-30T07:36:55.457Z,94.60
2017-12-30T07:37:57.920Z,94.69
2017-12-30T07:39:00.385Z,94.75
2017-12-30T07:40:02.837Z,94.97
2017-12-30T07:41:05.301Z,95.00
2017-12-30T07:42:07.746Z,95.03
2017-12-30T07:43:10.198Z,95.10
2017-12-30T07:44:12.637Z,95.19
2017-12-30T07:45:15.104Z,95.41
2017-12-30T07:46:17.565Z,95.57
2017-12-30T07:47:20.032Z,95.68
2017-12-30T07:48:22.477Z,95.84
2017-12-30T07:49:24.917Z,95.92
2017-12-30T07:50:27.366Z,95.92
2017-12-30T07:51:29.825Z,96.04
2017-12-30T07:52:32.270Z,96.10
2017-12-30T07:53:34.713Z,96.19
2017-12-30T07:54:37.176Z,96.32
2017-12-30T07:55:39.635Z,96.26
2017-12-30T07:56:42.078Z,96.27
2017-12-30T07:57:44.548Z,96.17
2017-12-30T07:58:47.008Z,96.11
2017-12-30T07:59:49.542Z,96.17
2017-12-30T08:00:51.990Z,96.28
2017-12-30T08:01:54.437Z,96.37
2017-12-30T08:02:56.898Z,96.45
2017-12-30T08:03:59.370Z,96.51
2017-12-30T08:05:01.829Z,96.60
2017-12-30T08:06:04.277Z,96.66
2017-12-30T08:07:06.753Z,96.70
2017-12-30T08:08:09.215Z,96.61
2017-12-30T08:09:11.676Z,96.63
2017-12-30T08:10:14.130Z,96.68
2017-12-30T08:11:16.681Z,96.66
2017-12-30T08:12:19.130Z,96.79
2017-12-30T08:13:21.582Z,96.84
2017-12-30T08:14:24.050Z,96.82
2017-12-30T08:15:26.503Z,96.70
2017-12-30T08:16:28.946Z,96.68
2017-12-30T08:17:31.396Z,96.72
2017-12-30T08:18:33.863Z,96.76
2017-12-30T08:19:36.316Z,96.69
2017-12-30T08:20:38.775Z,96.67
2017-12-30T08:21:41.222Z,96.69
2017-12-30T08:22:43.714Z,96.72
2017-12-30T08:23:46.179Z,96.71
2017-12-30T08:24:48.621Z,96.66
2017-12-30T08:25:51.116Z,96.72
2017-12-30T08:26:53.585Z,96.85
2017-12-30T08:27:56.056Z,96.75
2017-12-30T08:28:58.498Z,96.83
2017-12-30T08:30:00.959Z,96.86
2017-12-30T08:31:03.470Z,96.76
2017-12-30T08:32:05.895Z,96.87
2017-12-30T08:33:08.337Z,96.82
2017-12-30T08:34:10.782Z,96.82
2017-12-30T08:35:13.226Z,96.87
2017-12-30T08:36:15.684Z,96.89
2017-12-30T08:37:18.129Z,97.02
2017-12-30T08:38:20.592Z,96.99
2017-12-30T08:39:23.050Z,96.95
2017-12-30T08:40:25.662Z,96.54
2017-12-30T08:41:28.164Z,96.32
2017-12-30T08:42:30.630Z,96.62
2017-12-30T08:43:33.070Z,95.79
2017-12-30T08:44:35.509Z,96.13
2017-12-30T08:45:37.985Z,96.51
2017-12-30T08:46:40.525Z,96.70
2017-12-30T08:47:42.970Z,96.73
2017-12-30T08:48:45.439Z,96.71
2017-12-30T08:49:47.903Z,96.79
2017-12-30T08:50:50.349Z,96.85
2017-12-30T08:51:52.808Z,96.81
2017-12-30T08:52:55.277Z,96.95
2017-12-30T08:53:57.726Z,97.00
2017-12-30T08:55:00.166Z,97.02
2017-12-30T08:56:02.613Z,97.11
2017-12-30T08:57:05.075Z,97.06
2017-12-30T08:58:07.518Z,96.97
2017-12-30T08:59:09.978Z,97.02
2017-12-30T09:00:12.430Z,97.05
2017-12-30T09:01:14.897Z,96.98
2017-12-30T09:02:17.364Z,97.10
2017-12-30T09:03:19.818Z,97.14
2017-12-30T09:04:22.330Z,97.20
2017-12-30T09:05:24.792Z,97.23
2017-12-30T09:06:27.238Z,97.25
2017-12-30T09:07:29.681Z,97.39
2017-12-30T09:08:32.125Z,97.38
2017-12-30T09:09:34.574Z,97.34
2017-12-30T09:10:37.036Z,97.41
2017-12-30T09:11:39.489Z,97.45
2017-12-30T09:12:41.951Z,97.22
2017-12-30T09:13:44.520Z,97.26
2017-12-30T09:14:46.984Z,97.34
2017-12-30T09:15:49.448Z,97.46
2017-12-30T09:16:51.890Z,97.52
2017-12-30T09:17:54.352Z,97.50
2017-12-30T09:18:57.041Z,97.51
2017-12-30T09:19:59.541Z,97.57
2017-12-30T09:21:01.957Z,97.63
2017-12-30T09:22:04.418Z,97.52
2017-12-30T09:23:06.863Z,97.51
2017-12-30T09:24:09.306Z,97.57
2017-12-30T09:25:11.790Z,97.62
2017-12-30T09:26:14.256Z,97.74
2017-12-30T09:27:16.716Z,97.70
2017-12-30T09:28:19.267Z,97.68
2017-12-30T09:29:21.709Z,97.57
2017-12-30T09:30:24.149Z,97.53
2017-12-30T09:31:26.589Z,97.53
2017-12-30T09:32:29.068Z,97.63
2017-12-30T09:33:31.532Z,97.67
2017-12-30T09:34:34.010Z,97.72
2017-12-30T09:35:36.572Z,97.65
2017-12-30T09:36:39.036Z,97.69
2017-12-30T09:37:41.512Z,97.82
2017-12-30T09:38:43.953Z,97.82
2017-12-30T09:39:46.416Z,97.91
2017-12-30T09:40:48.866Z,97.86
2017-12-30T09:41:51.310Z,97.91
2017-12-30T09:42:53.773Z,97.94
2017-12-30T09:43:56.221Z,97.94
2017-12-30T09:44:58.678Z,97.95
2017-12-30T09:46:01.220Z,98.02
2017-12-30T09:47:03.791Z,97.93
2017-12-30T09:48:06.281Z,97.91
2017-12-30T09:49:08.748Z,98.00
2017-12-30T09:50:11.193Z,97.99
2017-12-30T09:51:13.652Z,98.01
2017-12-30T09:52:16.131Z,98.03
2017-12-30T09:53:18.612Z,98.02
2017-12-30T09:54:21.054Z,98.07
2017-12-30T09:55:23.512Z,98.06
2017-12-30T09:56:25.958Z,98.04
2017-12-30T09:57:28.416Z,98.06
2017-12-30T09:58:30.861Z,98.12
2017-12-30T09:59:33.321Z,98.15
2017-12-30T10:00:35.781Z,98.15
2017-12-30T10:01:38.244Z,98.10
2017-12-30T10:02:40.714Z,98.14
2017-12-30T10:03:43.154Z,98.15
2017-12-30T10:04:45.736Z,98.19
2017-12-30T10:05:48.196Z,98.22
2017-12-30T10:06:50.717Z,98.24
2017-12-30T10:07:53.168Z,98.22
2017-12-30T10:08:55.699Z,98.21
2017-12-30T10:09:58.165Z,98.18
2017-12-30T10:11:00.633Z,98.16
2017-12-30T10:12:03.092Z,98.18
2017-12-30T10:13:05.534Z,98.14
2017-12-30T10:14:07.981Z,98.17
2017-12-30T10:15:10.455Z,98.19
2017-12-30T10:16:13.240Z,98.14
2017-12-30T10:17:15.686Z,98.10
2017-12-30T10:18:18.148Z,98.09
2017-12-30T10:19:20.716Z,98.14
2017-12-30T10:20:23.166Z,98.15
2017-12-30T10:21:25.605Z,98.18
2017-12-30T10:22:28.050Z,98.21
2017-12-30T10:23:30.513Z,98.14
2017-12-30T10:24:32.977Z,98.08
2017-12-30T10:25:36.566Z,98.04
2017-12-30T10:26:39.010Z,98.03
2017-12-30T10:27:41.471Z,98.04
2017-12-30T10:28:43.932Z,97.98
2017-12-30T10:29:46.385Z,97.92
2017-12-30T10:30:48.877Z,97.93
2017-12-30T10:31:51.343Z,97.93
2017-12-30T10:32:53.797Z,97.93
2017-12-30T10:33:56.266Z,97.94
2017-12-30T10:34:58.728Z,97.84
2017-12-30T10:36:01.194Z,97.88
2017-12-30T10:37:03.656Z,97.95
2017-12-30T10:38:06.111Z,97.82
2017-12-30T10:39:08.570Z,97.65
2017-12-30T10:40:11.018Z,97.60
2017-12-30T10:41:13.484Z,97.56
2017-12-30T10:42:15.929Z,97.62
2017-12-30T10:43:18.387Z,97.67
2017-12-30T10:44:20.826Z,97.64
2017-12-30T10:45:23.284Z,97.64
2017-12-30T10:46:25.746Z,97.57
2017-12-30T10:47:28.198Z,97.40
2017-12-30T10:48:30.650Z,97.52
2017-12-30T10:49:33.099Z,97.33
2017-12-30T10:50:35.572Z,97.15
2017-12-30T10:51:38.023Z,97.05
2017-12-30T10:52:40.502Z,97.10
2017-12-30T10:53:42.992Z,97.15
2017-12-30T10:54:45.463Z,97.11
2017-12-30T10:55:47.928Z,96.88
2017-12-30T10:56:50.384Z,97.04
2017-12-30T10:57:52.825Z,96.98
2017-12-30T10:58:55.285Z,96.80
2017-12-30T10:59:57.734Z,96.67
2017-12-30T11:01:00.195Z,96.60
2017-12-30T11:02:02.660Z,96.57
2017-12-30T11:03:05.128Z,96.45
2017-12-30T11:04:07.592Z,96.40
2017-12-30T11:05:10.056Z,96.36
2017-12-30T11:06:12.543Z,96.48
2017-12-30T11:07:15.093Z,96.40
2017-12-30T11:08:17.552Z,96.46
2017-12-30T11:09:20.004Z,96.27
2017-12-30T11:10:22.509Z,96.34
2017-12-30T11:11:24.974Z,96.14
2017-12-30T11:12:27.436Z,96.02
2017-12-30T11:13:29.896Z,95.81
2017-12-30T11:14:32.337Z,95.72
2017-12-30T11:15:34.786Z,96.03
2017-12-30T11:16:37.229Z,96.05
2017-12-30T11:17:39.692Z,95.79
2017-12-30T11:18:42.143Z,95.92
2017-12-30T11:19:44.594Z,95.90
2017-12-30T11:20:47.039Z,95.37
2017-12-30T11:21:49.503Z,95.38
2017-12-30T11:22:51.979Z,94.65
2017-12-30T11:23:54.425Z,94.76
2017-12-30T11:24:56.865Z,95.11
2017-12-30T11:26:01.093Z,95.17
2017-12-30T11:27:03.767Z,95.26
2017-12-30T11:28:06.222Z,95.40
2017-12-30T11:29:08.863Z,95.54
2017-12-30T11:30:11.321Z,95.42
2017-12-30T11:31:13.777Z,95.59
2017-12-30T11:32:16.236Z,95.69
2017-12-30T11:33:18.687Z,95.58
2017-12-30T11:34:21.144Z,95.43
2017-12-30T11:35:23.599Z,95.49
2017-12-30T11:36:26.058Z,95.30
2017-12-30T11:37:28.502Z,95.11
2017-12-30T11:38:30.982Z,95.49
2017-12-30T11:39:33.444Z,95.48
2017-12-30T11:40:35.903Z,95.50
2017-12-30T11:41:38.360Z,95.49
2017-12-30T11:42:40.823Z,95.43
2017-12-30T11:43:43.279Z,95.35
2017-12-30T11:44:45.729Z,95.51
2017-12-30T11:45:48.173Z,95.65
2017-12-30T11:46:50.652Z,95.73
2017-12-30T11:47:53.109Z,95.90
2017-12-30T11:48:55.578Z,95.81
2017-12-30T11:49:58.076Z,95.83
2017-12-30T11:51:00.542Z,95.93
2017-12-30T11:52:03.012Z,95.63
2017-12-30T11:53:05.465Z,95.54
2017-12-30T11:54:08.015Z,95.42
2017-12-30T11:55:10.435Z,95.68
2017-12-30T11:56:12.889Z,95.51
2017-12-30T11:57:15.337Z,95.34
2017-12-30T11:58:17.808Z,95.50
2017-12-30T11:59:20.263Z,95.04
2017-12-30T12:00:22.717Z,94.68
2017-12-30T12:01:25.181Z,94.29
2017-12-30T12:02:27.629Z,93.54
2017-12-30T12:03:30.081Z,93.16
2017-12-30T12:04:32.534Z,92.77
2017-12-30T12:05:35.004Z,91.92
2017-12-30T12:06:37.467Z,91.80
2017-12-30T12:07:39.936Z,91.47
2017-12-30T12:08:42.408Z,90.87
2017-12-30T12:09:44.865Z,90.58
2017-12-30T12:10:47.327Z,90.88
2017-12-30T12:11:49.800Z,90.19
2017-12-30T12:12:52.272Z,90.00
2017-12-30T12:13:54.745Z,89.97
2017-12-30T12:14:57.199Z,89.47
2017-12-30T12:15:59.650Z,89.09
2017-12-30T12:17:02.107Z,88.63
2017-12-30T12:18:04.615Z,88.58
2017-12-30T12:19:07.123Z,88.08
2017-12-30T12:20:09.577Z,88.12
2017-12-30T12:21:12.034Z,87.69
2017-12-30T12:22:14.488Z,87.61
2017-12-30T12:23:16.938Z,87.15
2017-12-30T12:24:19.420Z,87.40
2017-12-30T12:25:21.892Z,87.57
2017-12-30T12:26:24.363Z,87.85
2017-12-30T12:27:26.860Z,87.53
2017-12-30T12:28:29.313Z,87.79
2017-12-30T12:29:31.761Z,87.56
2017-12-30T12:30:34.278Z,87.03
2017-12-30T12:31:36.731Z,86.86
2017-12-30T12:32:39.181Z,86.60
2017-12-30T12:33:41.648Z,86.68
2017-12-30T12:34:44.116Z,86.82
2017-12-30T12:35:46.669Z,86.92
2017-12-30T12:36:49.148Z,86.51
2017-12-30T12:37:51.602Z,86.62
2017-12-30T12:38:54.067Z,85.95
2017-12-30T12:39:56.536Z,86.13
2017-12-30T12:40:58.990Z,85.54
2017-12-30T12:42:01.485Z,85.76
2017-12-30T12:43:03.938Z,85.41
2017-12-30T12:44:06.440Z,84.97
2017-12-30T12:45:08.904Z,85.39
2017-12-30T12:46:11.358Z,85.66
2017-12-30T12:47:13.817Z,85.76
2017-12-30T12:48:16.282Z,85.57
2017-12-30T12:49:18.741Z,84.77
2017-12-30T12:50:21.233Z,85.05
2017-12-30T12:51:23.681Z,85.77
2017-12-30T12:52:26.144Z,85.78
2017-12-30T12:53:28.627Z,85.43
2017-12-30T12:54:31.097Z,85.21
2017-12-30T12:55:33.569Z,85.03
2017-12-30T12:56:36.030Z,84.86
2017-12-30T12:57:38.486Z,84.92
2017-12-30T12:58:40.955Z,84.31
2017-12-30T12:59:43.420Z,84.21
2017-12-30T13:00:45.908Z,84.35
2017-12-30T13:01:48.380Z,84.59
2017-12-30T13:02:50.834Z,84.35
2017-12-30T13:03:53.301Z,84.01
2017-12-30T13:04:55.769Z,83.75
2017-12-30T13:05:58.260Z,83.84
2017-12-30T13:07:00.731Z,83.96
2017-12-30T13:08:03.200Z,84.10
2017-12-30T13:09:05.653Z,83.57
2017-12-30T13:10:08.114Z,83.16
2017-12-30T13:11:10.589Z,83.00
2017-12-30T13:12:13.066Z,82.86
2017-12-30T13:13:15.514Z,83.54
2017-12-30T13:14:18.045Z,83.44
2017-12-30T13:15:20.470Z,82.91
2017-12-30T13:16:22.961Z,83.11
2017-12-30T13:17:25.428Z,82.68
2017-12-30T13:18:27.885Z,82.63
2017-12-30T13:19:30.338Z,82.76
2017-12-30T13:20:32.789Z,82.77
2017-12-30T13:21:35.266Z,82.55
2017-12-30T13:22:37.751Z,82.54
2017-12-30T13:23:40.205Z,82.34
2017-12-30T13:24:42.662Z,82.08
2017-12-30T13:25:45.118Z,81.62